createdAt,value
2017-07-09T00:00:46.779Z,0
2017-07-09T00:01:47.129Z,0
2017-07-09T00:02:47.110Z,0
2017-07-09T00:03:47.091Z,0
2017-07-09T00:04:47.091Z,0
2017-07-09T00:05:46.758Z,0
2017-07-09T00:06:47.091Z,0
2017-07-09T00:07:46.434Z,0
2017-07-09T00:08:47.393Z,0
2017-07-09T00:09:47.076Z,0
2017-07-09T00:10:47.066Z,0
2017-07-09T00:11:47.387Z,0
2017-07-09T00:12:47.048Z,0
2017-07-09T00:13:47.375Z,0
2017-07-09T00:14:47.103Z,0
2017-07-09T00:15:46.723Z,0
2017-07-09T00:16:47.028Z,0
2017-07-09T00:17:47.368Z,0
2017-07-09T00:18:47.040Z,0
2017-07-09T00:19:46.714Z,0
2017-07-09T00:20:47.017Z,0
2017-07-09T00:21:47.318Z,0
2017-07-09T00:22:46.391Z,0
2017-07-09T00:23:47.006Z,0
2017-07-09T00:24:47.375Z,0
2017-07-09T00:25:47.002Z,0
2017-07-09T00:26:47.009Z,0
2017-07-09T00:27:46.980Z,0
2017-07-09T00:28:47.320Z,0
2017-07-09T00:29:46.977Z,0
2017-07-09T00:30:46.989Z,0
2017-07-09T00:31:46.973Z,0
2017-07-09T00:32:46.993Z,0
2017-07-09T00:33:46.969Z,0
2017-07-09T00:34:47.292Z,0
2017-07-09T00:35:46.975Z,0
2017-07-09T00:36:46.939Z,0
2017-07-09T00:37:46.948Z,0
2017-07-09T00:38:47.294Z,0
2017-07-09T00:39:46.957Z,0
2017-07-09T00:40:47.289Z,0
2017-07-09T00:41:46.934Z,0
2017-07-09T00:42:46.947Z,0
2017-07-09T00:43:46.916Z,0
2017-07-09T00:44:47.257Z,0
2017-07-09T00:45:46.905Z,0
2017-07-09T00:46:46.929Z,0
2017-07-09T00:47:47.245Z,0
2017-07-09T00:48:47.218Z,0
2017-07-09T00:49:46.926Z,0
2017-07-09T00:50:46.913Z,0
2017-07-09T00:51:47.214Z,0
2017-07-09T00:52:47.206Z,0
2017-07-09T00:53:46.889Z,0
2017-07-09T00:54:47.216Z,0
2017-07-09T00:55:47.217Z,0
2017-07-09T00:56:46.899Z,0
2017-07-09T00:57:47.183Z,0
2017-07-09T00:58:47.201Z,0
2017-07-09T00:59:46.866Z,0
2017-07-09T01:00:47.173Z,0
2017-07-09T01:01:47.189Z,0
2017-07-09T01:02:46.203Z,0
2017-07-09T01:03:47.171Z,0
2017-07-09T01:04:47.165Z,0
2017-07-09T01:05:46.550Z,0
2017-07-09T01:06:47.161Z,0
2017-07-09T01:07:46.530Z,0
2017-07-09T01:08:47.145Z,0
2017-07-09T01:09:47.132Z,0
2017-07-09T01:10:46.836Z,0
2017-07-09T01:11:47.136Z,0
2017-07-09T01:12:46.839Z,0
2017-07-09T01:13:46.810Z,0
2017-07-09T01:14:47.126Z,0
2017-07-09T01:15:46.783Z,0
2017-07-09T01:16:47.118Z,0
2017-07-09T01:17:46.789Z,0
2017-07-09T01:18:47.124Z,0
2017-07-09T01:19:46.794Z,0
2017-07-09T01:20:46.478Z,0
2017-07-09T01:21:46.765Z,0
2017-07-09T01:22:46.138Z,0
2017-07-09T01:23:47.088Z,0
2017-07-09T01:24:47.077Z,0
2017-07-09T01:25:46.131Z,0
2017-07-09T01:26:47.089Z,0
2017-07-09T01:27:47.062Z,0
2017-07-09T01:28:46.766Z,0
2017-07-09T01:29:47.062Z,0
2017-07-09T01:30:47.090Z,0
2017-07-09T01:31:46.737Z,0
2017-07-09T01:32:47.053Z,0
2017-07-09T01:33:46.732Z,0
2017-07-09T01:34:46.413Z,0
2017-07-09T01:35:46.418Z,0
2017-07-09T01:36:47.061Z,0
2017-07-09T01:37:47.027Z,0
2017-07-09T01:38:47.014Z,0
2017-07-09T01:39:46.697Z,0
2017-07-09T01:40:46.708Z,0
2017-07-09T01:41:46.705Z,0
2017-07-09T01:42:47.019Z,0
2017-07-09T01:43:47.003Z,0
2017-07-09T01:44:46.991Z,0
2017-07-09T01:45:46.681Z,0
2017-07-09T01:46:46.659Z,0
2017-07-09T01:47:46.686Z,0
2017-07-09T01:48:46.977Z,0
2017-07-09T01:49:46.997Z,0
2017-07-09T01:50:46.972Z,0
2017-07-09T01:51:46.965Z,0
2017-07-09T01:52:46.982Z,0
2017-07-09T01:53:46.003Z,0
2017-07-09T01:54:46.638Z,0
2017-07-09T01:55:46.319Z,0
2017-07-09T01:56:46.642Z,0
2017-07-09T01:57:46.963Z,0
2017-07-09T01:58:46.940Z,0
2017-07-09T01:59:46.939Z,0
2017-07-09T02:00:46.597Z,0
2017-07-09T02:01:46.630Z,0
2017-07-09T02:02:46.939Z,0
2017-07-09T02:03:46.618Z,0
2017-07-09T02:04:46.588Z,0
2017-07-09T02:05:46.604Z,0
2017-07-09T02:06:46.890Z,0
2017-07-09T02:07:46.583Z,0
2017-07-09T02:08:46.902Z,0
2017-07-09T02:09:46.606Z,0
2017-07-09T02:10:46.895Z,0
2017-07-09T02:11:46.573Z,0
2017-07-09T02:12:46.549Z,0
2017-07-09T02:13:46.566Z,0
2017-07-09T02:14:46.558Z,0
2017-07-09T02:15:46.232Z,0
2017-07-09T02:16:46.220Z,0
2017-07-09T02:17:45.921Z,0
2017-07-09T02:18:46.855Z,0
2017-07-09T02:19:46.869Z,0
2017-07-09T02:20:46.209Z,0
2017-07-09T02:21:46.845Z,0
2017-07-09T02:22:46.186Z,0
2017-07-09T02:23:46.822Z,0
2017-07-09T02:24:46.507Z,0
2017-07-09T02:25:46.838Z,0
2017-07-09T02:26:46.832Z,0
2017-07-09T02:27:46.809Z,0
2017-07-09T02:28:46.499Z,0
2017-07-09T02:29:46.817Z,0
2017-07-09T02:30:46.166Z,0
2017-07-09T02:31:46.482Z,0
2017-07-09T02:32:46.466Z,0
2017-07-09T02:33:47.060Z,0
2017-07-09T02:34:46.790Z,0
2017-07-09T02:35:46.473Z,0
2017-07-09T02:36:46.447Z,0
2017-07-09T02:37:46.468Z,0
2017-07-09T02:38:46.730Z,0
2017-07-09T02:39:46.123Z,0
2017-07-09T02:40:46.755Z,0
2017-07-09T02:41:46.766Z,5
2017-07-09T02:42:46.422Z,5
2017-07-09T02:43:46.437Z,5
2017-07-09T02:44:46.743Z,5
2017-07-09T02:45:46.747Z,5
2017-07-09T02:46:46.100Z,5
2017-07-09T02:47:46.413Z,5
2017-07-09T02:48:46.733Z,5
2017-07-09T02:49:46.101Z,5
2017-07-09T02:50:46.712Z,10
2017-07-09T02:51:46.735Z,10
2017-07-09T02:52:46.697Z,10
2017-07-09T02:53:46.722Z,10
2017-07-09T02:54:46.678Z,10
2017-07-09T02:55:46.681Z,15
2017-07-09T02:56:46.680Z,15
2017-07-09T02:57:46.704Z,15
2017-07-09T02:58:46.738Z,15
2017-07-09T02:59:46.373Z,20
2017-07-09T03:00:46.676Z,20
2017-07-09T03:01:46.651Z,20
2017-07-09T03:02:46.672Z,20
2017-07-09T03:03:46.663Z,25
2017-07-09T03:04:46.662Z,25
2017-07-09T03:05:46.320Z,25
2017-07-09T03:06:46.642Z,30
2017-07-09T03:07:46.634Z,30
2017-07-09T03:08:46.627Z,35
2017-07-09T03:09:46.327Z,35
2017-07-09T03:10:46.602Z,35
2017-07-09T03:11:46.636Z,40
2017-07-09T03:12:46.605Z,40
2017-07-09T03:13:46.617Z,40
2017-07-09T03:14:46.618Z,40
2017-07-09T03:15:46.603Z,40
2017-07-09T03:16:46.595Z,40
2017-07-09T03:17:46.586Z,45
2017-07-09T03:18:46.593Z,45
2017-07-09T03:19:46.578Z,45
2017-07-09T03:20:46.600Z,50
2017-07-09T03:21:46.270Z,50
2017-07-09T03:22:46.255Z,55
2017-07-09T03:23:46.545Z,55
2017-07-09T03:24:46.264Z,60
2017-07-09T03:25:46.555Z,60
2017-07-09T03:26:46.573Z,65
2017-07-09T03:27:46.546Z,65
2017-07-09T03:28:46.252Z,70
2017-07-09T03:29:46.230Z,75
2017-07-09T03:30:46.226Z,80
2017-07-09T03:31:46.225Z,80
2017-07-09T03:32:46.221Z,85
2017-07-09T03:33:46.188Z,90
2017-07-09T03:34:46.215Z,95
2017-07-09T03:35:46.512Z,95
2017-07-09T03:36:46.524Z,100
2017-07-09T03:37:46.172Z,105
2017-07-09T03:38:46.485Z,110
2017-07-09T03:39:46.479Z,115
2017-07-09T03:40:45.858Z,120
2017-07-09T03:41:46.154Z,125
2017-07-09T03:42:46.512Z,130
2017-07-09T03:43:46.475Z,135
2017-07-09T03:44:46.478Z,140
2017-07-09T03:45:46.452Z,140
2017-07-09T03:46:46.454Z,150
2017-07-09T03:47:46.462Z,150
2017-07-09T03:48:46.469Z,155
2017-07-09T03:49:46.142Z,160
2017-07-09T03:50:46.452Z,160
2017-07-09T03:51:46.458Z,165
2017-07-09T03:52:46.429Z,165
2017-07-09T03:53:46.486Z,170
2017-07-09T03:54:46.439Z,175
2017-07-09T03:55:46.456Z,180
2017-07-09T03:56:46.112Z,185
2017-07-09T03:57:46.130Z,185
2017-07-09T03:58:46.450Z,185
2017-07-09T03:59:46.439Z,185
2017-07-09T04:00:46.448Z,200
2017-07-09T04:01:46.086Z,200
2017-07-09T04:02:46.127Z,205
2017-07-09T04:03:46.409Z,210
2017-07-09T04:04:46.422Z,225
2017-07-09T04:05:46.115Z,230
2017-07-09T04:06:45.457Z,230
2017-07-09T04:07:46.410Z,240
2017-07-09T04:08:46.389Z,255
2017-07-09T04:09:46.422Z,265
2017-07-09T04:10:46.401Z,275
2017-07-09T04:11:46.392Z,250
2017-07-09T04:12:46.424Z,215
2017-07-09T04:13:45.763Z,195
2017-07-09T04:14:46.471Z,185
2017-07-09T04:15:46.403Z,185
2017-07-09T04:16:46.397Z,190
2017-07-09T04:17:46.081Z,195
2017-07-09T04:18:46.093Z,205
2017-07-09T04:19:46.396Z,220
2017-07-09T04:20:46.412Z,260
2017-07-09T04:21:46.413Z,255
2017-07-09T04:22:46.057Z,265
2017-07-09T04:23:45.766Z,265
2017-07-09T04:24:46.080Z,330
2017-07-09T04:25:46.385Z,335
2017-07-09T04:26:46.401Z,345
2017-07-09T04:27:46.073Z,355
2017-07-09T04:28:46.082Z,365
2017-07-09T04:29:46.377Z,375
2017-07-09T04:30:46.415Z,385
2017-07-09T04:31:46.404Z,400
2017-07-09T04:32:46.409Z,405
2017-07-09T04:33:46.069Z,405
2017-07-09T04:34:46.365Z,410
2017-07-09T04:35:46.078Z,410
2017-07-09T04:36:45.761Z,420
2017-07-09T04:37:46.398Z,425
2017-07-09T04:38:46.390Z,430
2017-07-09T04:39:46.400Z,435
2017-07-09T04:40:45.741Z,445
2017-07-09T04:41:46.414Z,455
2017-07-09T04:42:46.408Z,455
2017-07-09T04:43:46.424Z,465
2017-07-09T04:44:46.083Z,475
2017-07-09T04:45:46.094Z,485
2017-07-09T04:46:46.392Z,485
2017-07-09T04:47:46.396Z,500
2017-07-09T04:48:46.393Z,505
2017-07-09T04:49:46.422Z,510
2017-07-09T04:50:46.097Z,520
2017-07-09T04:51:46.414Z,530
2017-07-09T04:52:46.430Z,540
2017-07-09T04:53:46.438Z,540
2017-07-09T04:54:45.774Z,535
2017-07-09T04:55:46.113Z,535
2017-07-09T04:56:46.426Z,555
2017-07-09T04:57:46.498Z,570
2017-07-09T04:58:46.447Z,585
2017-07-09T04:59:46.464Z,610
2017-07-09T05:00:46.427Z,640
2017-07-09T05:01:46.148Z,660
2017-07-09T05:02:46.121Z,665
2017-07-09T05:03:46.456Z,670
2017-07-09T05:04:46.458Z,675
2017-07-09T05:05:46.494Z,670
2017-07-09T05:06:46.500Z,615
2017-07-09T05:07:45.859Z,590
2017-07-09T05:08:46.170Z,550
2017-07-09T05:09:46.487Z,420
2017-07-09T05:10:46.175Z,450
2017-07-09T05:11:46.497Z,430
2017-07-09T05:12:46.536Z,500
2017-07-09T05:13:46.498Z,640
2017-07-09T05:14:46.221Z,675
2017-07-09T05:15:46.252Z,700
2017-07-09T05:16:45.913Z,725
2017-07-09T05:17:46.563Z,725
2017-07-09T05:18:46.531Z,725
2017-07-09T05:19:46.555Z,740
2017-07-09T05:20:46.541Z,730
2017-07-09T05:21:46.578Z,750
2017-07-09T05:22:45.934Z,760
2017-07-09T05:23:46.581Z,770
2017-07-09T05:24:46.582Z,780
2017-07-09T05:25:46.575Z,775
2017-07-09T05:26:46.611Z,795
2017-07-09T05:27:46.605Z,825
2017-07-09T05:28:46.319Z,845
2017-07-09T05:29:46.287Z,855
2017-07-09T05:30:46.633Z,865
2017-07-09T05:31:46.610Z,885
2017-07-09T05:32:46.649Z,890
2017-07-09T05:33:46.660Z,890
2017-07-09T05:34:46.369Z,885
2017-07-09T05:35:46.680Z,895
2017-07-09T05:36:46.685Z,890
2017-07-09T05:37:46.693Z,905
2017-07-09T05:38:46.371Z,925
2017-07-09T05:39:46.089Z,945
2017-07-09T05:40:46.729Z,940
2017-07-09T05:41:46.719Z,965
2017-07-09T05:42:46.420Z,960
2017-07-09T05:43:46.413Z,950
2017-07-09T05:44:46.778Z,950
2017-07-09T05:45:46.742Z,960
2017-07-09T05:46:46.791Z,960
2017-07-09T05:47:46.437Z,995
2017-07-09T05:48:46.802Z,1005
2017-07-09T05:49:46.467Z,1020
2017-07-09T05:50:46.869Z,1010
2017-07-09T05:51:46.836Z,1025
2017-07-09T05:52:46.837Z,995
2017-07-09T05:53:46.201Z,1035
2017-07-09T05:54:46.849Z,1090
2017-07-09T05:55:46.863Z,1090
2017-07-09T05:56:46.881Z,1085
2017-07-09T05:57:46.868Z,1065
2017-07-09T05:58:46.880Z,1070
2017-07-09T05:59:46.576Z,1085
2017-07-09T06:00:46.562Z,1075
2017-07-09T06:01:46.926Z,1090
2017-07-09T06:02:46.922Z,960
2017-07-09T06:03:46.965Z,825
2017-07-09T06:04:46.608Z,1025
2017-07-09T06:05:46.975Z,945
2017-07-09T06:06:46.701Z,775
2017-07-09T06:07:46.665Z,1175
2017-07-09T06:08:46.998Z,1165
2017-07-09T06:09:46.981Z,1165
2017-07-09T06:10:46.998Z,1150
2017-07-09T06:11:46.757Z,1025
2017-07-09T06:12:47.037Z,860
2017-07-09T06:13:46.741Z,1110
2017-07-09T06:14:47.038Z,940
2017-07-09T06:15:46.742Z,920
2017-07-09T06:16:47.052Z,1055
2017-07-09T06:17:46.771Z,1025
2017-07-09T06:18:47.096Z,775
2017-07-09T06:19:47.116Z,740
2017-07-09T06:20:46.778Z,610
2017-07-09T06:21:46.813Z,525
2017-07-09T06:22:46.472Z,490
2017-07-09T06:23:47.146Z,480
2017-07-09T06:24:47.136Z,480
2017-07-09T06:25:46.542Z,520
2017-07-09T06:26:47.170Z,570
2017-07-09T06:27:47.185Z,620
2017-07-09T06:28:47.191Z,555
2017-07-09T06:29:46.874Z,545
2017-07-09T06:30:46.895Z,550
2017-07-09T06:31:47.216Z,555
2017-07-09T06:32:46.897Z,530
2017-07-09T06:33:46.290Z,515
2017-07-09T06:34:47.225Z,505
2017-07-09T06:35:46.946Z,500
2017-07-09T06:36:46.933Z,525
2017-07-09T06:37:47.276Z,565
2017-07-09T06:38:47.264Z,605
2017-07-09T06:39:47.287Z,640
2017-07-09T06:40:47.289Z,685
2017-07-09T06:41:46.999Z,845
2017-07-09T06:42:47.308Z,940
2017-07-09T06:43:47.306Z,1455
2017-07-09T06:44:47.330Z,1495
2017-07-09T06:45:47.321Z,1530
2017-07-09T06:46:47.022Z,1500
2017-07-09T06:47:47.038Z,1415
2017-07-09T06:48:47.370Z,1450
2017-07-09T06:49:47.052Z,1500
2017-07-09T06:50:46.735Z,1365
2017-07-09T06:51:47.066Z,1230
2017-07-09T06:52:47.389Z,890
2017-07-09T06:53:47.073Z,845
2017-07-09T06:54:47.426Z,855
2017-07-09T06:55:47.101Z,915
2017-07-09T06:56:47.438Z,975
2017-07-09T06:57:47.453Z,1070
2017-07-09T06:58:47.136Z,1025
2017-07-09T06:59:46.810Z,950
2017-07-09T07:00:46.812Z,800
2017-07-09T07:01:47.149Z,785
2017-07-09T07:02:47.481Z,830
2017-07-09T07:03:47.179Z,1095
2017-07-09T07:04:47.520Z,1710
2017-07-09T07:05:47.482Z,1715
2017-07-09T07:06:47.522Z,1595
2017-07-09T07:07:46.568Z,1505
2017-07-09T07:08:46.588Z,1675
2017-07-09T07:09:46.583Z,1225
2017-07-09T07:10:47.582Z,745
2017-07-09T07:11:47.570Z,630
2017-07-09T07:12:47.576Z,580
2017-07-09T07:13:46.938Z,545
2017-07-09T07:14:47.599Z,520
2017-07-09T07:15:47.609Z,500
2017-07-09T07:16:47.632Z,510
2017-07-09T07:17:47.319Z,540
2017-07-09T07:18:47.631Z,600
2017-07-09T07:19:47.332Z,640
2017-07-09T07:20:47.623Z,710
2017-07-09T07:21:47.696Z,795
2017-07-09T07:22:47.037Z,820
2017-07-09T07:23:47.685Z,725
2017-07-09T07:24:47.697Z,615
2017-07-09T07:25:47.372Z,560
2017-07-09T07:26:47.423Z,525
2017-07-09T07:27:47.738Z,505
2017-07-09T07:28:47.421Z,505
2017-07-09T07:29:47.715Z,495
2017-07-09T07:30:47.744Z,455
2017-07-09T07:31:47.767Z,430
2017-07-09T07:32:47.147Z,410
2017-07-09T07:33:47.470Z,400
2017-07-09T07:34:47.451Z,395
2017-07-09T07:35:46.833Z,395
2017-07-09T07:36:47.478Z,440
2017-07-09T07:37:47.474Z,485
2017-07-09T07:38:47.808Z,510
2017-07-09T07:39:47.464Z,530
2017-07-09T07:40:47.518Z,575
2017-07-09T07:41:47.485Z,620
2017-07-09T07:42:47.517Z,660
2017-07-09T07:43:47.515Z,650
2017-07-09T07:44:47.209Z,625
2017-07-09T07:45:47.517Z,605
2017-07-09T07:46:47.528Z,580
2017-07-09T07:47:47.228Z,525
2017-07-09T07:48:47.890Z,470
2017-07-09T07:49:47.543Z,430
2017-07-09T07:50:47.565Z,405
2017-07-09T07:51:47.568Z,400
2017-07-09T07:52:47.586Z,395
2017-07-09T07:53:47.578Z,390
2017-07-09T07:54:47.907Z,380
2017-07-09T07:55:47.904Z,370
2017-07-09T07:56:47.595Z,355
2017-07-09T07:57:47.582Z,350
2017-07-09T07:58:47.296Z,380
2017-07-09T07:59:47.922Z,430
2017-07-09T08:00:47.620Z,500
2017-07-09T08:01:47.920Z,545
2017-07-09T08:02:47.630Z,530
2017-07-09T08:03:47.641Z,480
2017-07-09T08:04:47.652Z,440
2017-07-09T08:05:47.343Z,415
2017-07-09T08:06:47.653Z,445
2017-07-09T08:07:47.645Z,480
2017-07-09T08:08:47.646Z,475
2017-07-09T08:09:47.692Z,470
2017-07-09T08:10:47.674Z,470
2017-07-09T08:11:47.686Z,475
2017-07-09T08:12:48.006Z,470
2017-07-09T08:13:47.058Z,455
2017-07-09T08:14:47.671Z,425
2017-07-09T08:15:47.696Z,405
2017-07-09T08:16:47.711Z,410
2017-07-09T08:17:47.693Z,420
2017-07-09T08:18:48.025Z,430
2017-07-09T08:19:47.726Z,430
2017-07-09T08:20:47.729Z,415
2017-07-09T08:21:47.743Z,390
2017-07-09T08:22:47.405Z,365
2017-07-09T08:23:47.737Z,345
2017-07-09T08:24:47.715Z,340
2017-07-09T08:25:48.066Z,350
2017-07-09T08:26:47.727Z,375
2017-07-09T08:27:47.780Z,390
2017-07-09T08:28:47.418Z,400
2017-07-09T08:29:47.444Z,400
2017-07-09T08:30:47.723Z,400
2017-07-09T08:31:47.767Z,410
2017-07-09T08:32:48.077Z,420
2017-07-09T08:33:47.469Z,425
2017-07-09T08:34:48.082Z,445
2017-07-09T08:35:47.473Z,460
2017-07-09T08:36:47.769Z,490
2017-07-09T08:37:48.106Z,515
2017-07-09T08:38:47.785Z,565
2017-07-09T08:39:48.133Z,620
2017-07-09T08:40:48.101Z,685
2017-07-09T08:41:48.126Z,780
2017-07-09T08:42:47.493Z,855
2017-07-09T08:43:48.140Z,955
2017-07-09T08:44:47.799Z,1130
2017-07-09T08:45:48.161Z,1055
2017-07-09T08:46:47.806Z,1245
2017-07-09T08:47:47.512Z,960
2017-07-09T08:48:47.813Z,935
2017-07-09T08:49:47.852Z,950
2017-07-09T08:50:47.520Z,1210
2017-07-09T08:51:47.525Z,1080
2017-07-09T08:52:47.535Z,985
2017-07-09T08:53:47.825Z,870
2017-07-09T08:54:47.545Z,765
2017-07-09T08:55:47.561Z,680
2017-07-09T08:56:47.890Z,600
2017-07-09T08:57:47.551Z,545
2017-07-09T08:58:48.217Z,525
2017-07-09T08:59:47.876Z,515
2017-07-09T09:00:47.912Z,505
2017-07-09T09:01:48.208Z,470
2017-07-09T09:02:47.912Z,445
2017-07-09T09:03:47.908Z,425
2017-07-09T09:04:47.933Z,415
2017-07-09T09:05:47.907Z,415
2017-07-09T09:06:47.942Z,400
2017-07-09T09:07:47.933Z,385
2017-07-09T09:08:48.269Z,365
2017-07-09T09:09:47.618Z,355
2017-07-09T09:10:47.648Z,350
2017-07-09T09:11:47.649Z,350
2017-07-09T09:12:48.342Z,350
2017-07-09T09:13:47.970Z,370
2017-07-09T09:14:47.605Z,400
2017-07-09T09:15:47.975Z,435
2017-07-09T09:16:48.320Z,445
2017-07-09T09:17:47.671Z,435
2017-07-09T09:18:47.996Z,425
2017-07-09T09:19:48.324Z,430
2017-07-09T09:20:48.002Z,460
2017-07-09T09:21:48.331Z,510
2017-07-09T09:22:47.703Z,555
2017-07-09T09:23:48.015Z,580
2017-07-09T09:24:48.027Z,605
2017-07-09T09:25:48.349Z,575
2017-07-09T09:26:47.724Z,520
2017-07-09T09:27:48.036Z,485
2017-07-09T09:28:48.069Z,470
2017-07-09T09:29:48.350Z,445
2017-07-09T09:30:47.726Z,430
2017-07-09T09:31:48.397Z,415
2017-07-09T09:32:48.073Z,405
2017-07-09T09:33:48.405Z,380
2017-07-09T09:34:47.756Z,355
2017-07-09T09:35:47.765Z,345
2017-07-09T09:36:48.393Z,345
2017-07-09T09:37:47.458Z,355
2017-07-09T09:38:48.144Z,360
2017-07-09T09:39:47.778Z,355
2017-07-09T09:40:48.395Z,350
2017-07-09T09:41:48.100Z,340
2017-07-09T09:42:48.421Z,330
2017-07-09T09:43:47.795Z,315
2017-07-09T09:44:47.487Z,295
2017-07-09T09:45:47.156Z,280
2017-07-09T09:46:47.486Z,265
2017-07-09T09:47:48.107Z,250
2017-07-09T09:48:47.825Z,235
2017-07-09T09:49:48.448Z,220
2017-07-09T09:50:48.469Z,215
2017-07-09T09:51:48.130Z,210
2017-07-09T09:52:47.828Z,215
2017-07-09T09:53:47.549Z,225
2017-07-09T09:54:48.463Z,230
2017-07-09T09:55:48.457Z,240
2017-07-09T09:56:47.845Z,260
2017-07-09T09:57:48.469Z,275
2017-07-09T09:58:47.523Z,295
2017-07-09T09:59:48.164Z,315
2017-07-09T10:00:48.184Z,335
2017-07-09T10:01:48.481Z,340
2017-07-09T10:02:48.172Z,340
2017-07-09T10:03:48.493Z,340
2017-07-09T10:04:48.508Z,335
2017-07-09T10:05:48.487Z,330
2017-07-09T10:06:48.213Z,315
2017-07-09T10:07:48.563Z,310
2017-07-09T10:08:48.509Z,320
2017-07-09T10:09:48.161Z,330
2017-07-09T10:10:48.183Z,335
2017-07-09T10:11:48.532Z,330
2017-07-09T10:12:48.512Z,330
2017-07-09T10:13:48.523Z,325
2017-07-09T10:14:48.497Z,310
2017-07-09T10:15:48.212Z,310
2017-07-09T10:16:48.511Z,300
2017-07-09T10:17:48.542Z,290
2017-07-09T10:18:48.213Z,300
2017-07-09T10:19:47.912Z,330
2017-07-09T10:20:48.197Z,350
2017-07-09T10:21:48.232Z,365
2017-07-09T10:22:48.203Z,390
2017-07-09T10:23:47.896Z,450
2017-07-09T10:24:48.225Z,540
2017-07-09T10:25:48.217Z,670
2017-07-09T10:26:48.225Z,770
2017-07-09T10:27:48.554Z,815
2017-07-09T10:28:48.242Z,840
2017-07-09T10:29:47.937Z,895
2017-07-09T10:30:48.227Z,965
2017-07-09T10:31:47.917Z,1010
2017-07-09T10:32:48.536Z,1030
2017-07-09T10:33:48.566Z,1010
2017-07-09T10:34:48.553Z,985
2017-07-09T10:35:48.263Z,955
2017-07-09T10:36:48.250Z,925
2017-07-09T10:37:48.587Z,905
2017-07-09T10:38:48.248Z,885
2017-07-09T10:39:48.589Z,850
2017-07-09T10:40:48.260Z,780
2017-07-09T10:41:47.974Z,695
2017-07-09T10:42:48.596Z,635
2017-07-09T10:43:47.965Z,620
2017-07-09T10:44:48.277Z,645
2017-07-09T10:45:48.613Z,710
2017-07-09T10:46:48.630Z,830
2017-07-09T10:47:48.625Z,930
2017-07-09T10:48:48.620Z,970
2017-07-09T10:49:48.642Z,965
2017-07-09T10:50:48.637Z,940
2017-07-09T10:51:48.660Z,945
2017-07-09T10:52:48.000Z,940
2017-07-09T10:53:48.662Z,930
2017-07-09T10:54:47.698Z,930
2017-07-09T10:55:47.712Z,925
2017-07-09T10:56:48.338Z,925
2017-07-09T10:57:48.690Z,965
2017-07-09T10:58:48.048Z,955
2017-07-09T10:59:48.698Z,900
2017-07-09T11:00:48.692Z,850
2017-07-09T11:01:48.392Z,830
2017-07-09T11:02:48.373Z,850
2017-07-09T11:03:48.718Z,885
2017-07-09T11:04:48.712Z,915
2017-07-09T11:05:48.743Z,925
2017-07-09T11:06:48.408Z,945
2017-07-09T11:07:48.779Z,975
2017-07-09T11:08:48.728Z,1000
2017-07-09T11:09:48.431Z,1020
2017-07-09T11:10:48.432Z,1020
2017-07-09T11:11:48.777Z,1020
2017-07-09T11:12:48.757Z,1015
2017-07-09T11:13:48.801Z,1025
2017-07-09T11:14:48.472Z,1070
2017-07-09T11:15:48.467Z,1080
2017-07-09T11:16:48.472Z,1080
2017-07-09T11:17:48.818Z,1040
2017-07-09T11:18:48.797Z,1005
2017-07-09T11:19:48.824Z,990
2017-07-09T11:20:48.810Z,980
2017-07-09T11:21:48.516Z,970
2017-07-09T11:22:48.206Z,955
2017-07-09T11:23:48.221Z,930
2017-07-09T11:24:48.520Z,900
2017-07-09T11:25:48.543Z,855
2017-07-09T11:26:48.541Z,795
2017-07-09T11:27:48.873Z,745
2017-07-09T11:28:48.249Z,710
2017-07-09T11:29:48.576Z,640
2017-07-09T11:30:48.261Z,580
2017-07-09T11:31:48.882Z,540
2017-07-09T11:32:48.898Z,515
2017-07-09T11:33:48.594Z,500
2017-07-09T11:34:48.926Z,480
2017-07-09T11:35:48.293Z,470
2017-07-09T11:36:48.627Z,455
2017-07-09T11:37:48.917Z,445
2017-07-09T11:38:48.951Z,435
2017-07-09T11:39:48.623Z,430
2017-07-09T11:40:48.959Z,430
2017-07-09T11:41:48.668Z,430
2017-07-09T11:42:49.038Z,440
2017-07-09T11:43:48.687Z,450
2017-07-09T11:44:48.656Z,475
2017-07-09T11:45:49.010Z,485
2017-07-09T11:46:48.682Z,495
2017-07-09T11:47:49.009Z,495
2017-07-09T11:48:49.013Z,480
2017-07-09T11:49:48.682Z,465
2017-07-09T11:50:48.707Z,450
2017-07-09T11:51:49.019Z,440
2017-07-09T11:52:47.769Z,445
2017-07-09T11:53:48.703Z,460
2017-07-09T11:54:49.045Z,495
2017-07-09T11:55:48.707Z,535
2017-07-09T11:56:48.736Z,590
2017-07-09T11:57:49.040Z,635
2017-07-09T11:58:48.439Z,675
2017-07-09T11:59:48.737Z,700
2017-07-09T12:00:48.465Z,700
2017-07-09T12:01:49.048Z,695
2017-07-09T12:02:49.065Z,685
2017-07-09T12:03:48.451Z,665
2017-07-09T12:04:48.837Z,645
2017-07-09T12:05:48.782Z,625
2017-07-09T12:06:49.098Z,600
2017-07-09T12:07:48.460Z,570
2017-07-09T12:08:49.115Z,530
2017-07-09T12:09:49.085Z,530
2017-07-09T12:10:49.122Z,545
2017-07-09T12:11:49.124Z,560
2017-07-09T12:12:49.134Z,550
2017-07-09T12:13:49.120Z,560
2017-07-09T12:14:49.153Z,565
2017-07-09T12:15:48.832Z,565
2017-07-09T12:16:48.832Z,555
2017-07-09T12:17:49.128Z,520
2017-07-09T12:18:48.834Z,495
2017-07-09T12:19:48.862Z,485
2017-07-09T12:20:48.864Z,475
2017-07-09T12:21:48.861Z,470
2017-07-09T12:22:48.537Z,455
2017-07-09T12:23:49.165Z,425
2017-07-09T12:24:48.871Z,405
2017-07-09T12:25:48.895Z,400
2017-07-09T12:26:49.204Z,390
2017-07-09T12:27:49.229Z,380
2017-07-09T12:28:49.200Z,360
2017-07-09T12:29:48.903Z,350
2017-07-09T12:30:49.226Z,340
2017-07-09T12:31:48.914Z,335
2017-07-09T12:32:48.920Z,330
2017-07-09T12:33:48.901Z,335
2017-07-09T12:34:48.917Z,330
2017-07-09T12:35:48.924Z,325
2017-07-09T12:36:49.265Z,325
2017-07-09T12:37:49.281Z,325
2017-07-09T12:38:49.253Z,325
2017-07-09T12:39:49.265Z,325
2017-07-09T12:40:48.990Z,320
2017-07-09T12:41:49.292Z,320
2017-07-09T12:42:48.645Z,315
2017-07-09T12:43:48.988Z,310
2017-07-09T12:44:49.278Z,320
2017-07-09T12:45:49.297Z,315
2017-07-09T12:46:48.972Z,315
2017-07-09T12:47:49.308Z,315
2017-07-09T12:48:49.294Z,315
2017-07-09T12:49:49.315Z,315
2017-07-09T12:50:49.340Z,315
2017-07-09T12:51:49.318Z,315
2017-07-09T12:52:49.002Z,315
2017-07-09T12:53:48.996Z,320
2017-07-09T12:54:48.694Z,320
2017-07-09T12:55:48.689Z,320
2017-07-09T12:56:49.338Z,320
2017-07-09T12:57:49.356Z,320
2017-07-09T12:58:49.006Z,315
2017-07-09T12:59:49.365Z,315
2017-07-09T13:00:49.327Z,315
2017-07-09T13:01:49.044Z,320
2017-07-09T13:02:49.028Z,320
2017-07-09T13:03:49.355Z,325
2017-07-09T13:04:49.346Z,320
2017-07-09T13:05:49.101Z,325
2017-07-09T13:06:49.363Z,345
2017-07-09T13:07:49.050Z,390
2017-07-09T13:08:49.037Z,465
2017-07-09T13:09:49.370Z,515
2017-07-09T13:10:49.395Z,555
2017-07-09T13:11:49.066Z,560
2017-07-09T13:12:49.399Z,545
2017-07-09T13:13:49.364Z,515
2017-07-09T13:14:49.081Z,480
2017-07-09T13:15:49.376Z,455
2017-07-09T13:16:49.411Z,440
2017-07-09T13:17:49.393Z,430
2017-07-09T13:18:49.428Z,420
2017-07-09T13:19:49.093Z,405
2017-07-09T13:20:48.796Z,395
2017-07-09T13:21:49.418Z,395
2017-07-09T13:22:49.110Z,385
2017-07-09T13:23:49.107Z,370
2017-07-09T13:24:48.791Z,360
2017-07-09T13:25:49.436Z,360
2017-07-09T13:26:49.119Z,360
2017-07-09T13:27:49.138Z,370
2017-07-09T13:28:49.453Z,390
2017-07-09T13:29:49.435Z,400
2017-07-09T13:30:49.150Z,410
2017-07-09T13:31:49.132Z,415
2017-07-09T13:32:48.836Z,415
2017-07-09T13:33:49.131Z,405
2017-07-09T13:34:49.153Z,390
2017-07-09T13:35:49.472Z,375
2017-07-09T13:36:49.474Z,380
2017-07-09T13:37:49.171Z,385
2017-07-09T13:38:48.846Z,410
2017-07-09T13:39:49.495Z,410
2017-07-09T13:40:49.491Z,400
2017-07-09T13:41:48.866Z,380
2017-07-09T13:42:49.488Z,360
2017-07-09T13:43:49.168Z,345
2017-07-09T13:44:49.479Z,340
2017-07-09T13:45:49.208Z,355
2017-07-09T13:46:49.507Z,370
2017-07-09T13:47:49.202Z,370
2017-07-09T13:48:49.535Z,360
2017-07-09T13:49:49.515Z,355
2017-07-09T13:50:49.220Z,355
2017-07-09T13:51:49.206Z,370
2017-07-09T13:52:49.215Z,385
2017-07-09T13:53:49.211Z,400
2017-07-09T13:54:49.219Z,415
2017-07-09T13:55:48.915Z,420
2017-07-09T13:56:49.237Z,430
2017-07-09T13:57:49.570Z,440